sensor_id;sensor_type;location;lat;lon;timestamp;P1;durP1;ratioP1;P2;durP2;ratioP2
3967;SDS011;9221;42.646;23.380;2022-12-18T00:01:04;5.70;;;2.60;;
3967;SDS011;9221;42.646;23.380;2022-12-18T00:03:34;9.10;;;2.00;;
3967;SDS011;9221;42.646;23.380;2022-12-18T00:06:00;5.07;;;2.07;;
3967;SDS011;9221;42.646;23.380;2022-12-18T00:08:26;5.17;;;2.60;;
3967;SDS011;9221;42.646;23.380;2022-12-18T00:10:52;4.30;;;2.13;;
3967;SDS011;9221;42.646;23.380;2022-12-18T00:13:18;5.20;;;2.50;;
3967;SDS011;9221;42.646;23.380;2022-12-18T00:15:43;7.20;;;2.70;;
3967;SDS011;9221;42.646;23.380;2022-12-18T00:18:09;2.93;;;1.83;;
3967;SDS011;9221;42.646;23.380;2022-12-18T00:20:35;6.13;;;2.60;;
3967;SDS011;9221;42.646;23.380;2022-12-18T00:23:02;7.27;;;3.20;;
3967;SDS011;9221;42.646;23.380;2022-12-18T00:25:27;8.73;;;3.27;;
3967;SDS011;9221;42.646;23.380;2022-12-18T00:27:53;6.60;;;3.23;;
3967;SDS011;9221;42.646;23.380;2022-12-18T00:30:18;4.60;;;2.50;;
3967;SDS011;9221;42.646;23.380;2022-12-18T00:32:43;6.07;;;2.70;;
3967;SDS011;9221;42.646;23.380;2022-12-18T00:35:09;5.23;;;2.87;;
3967;SDS011;9221;42.646;23.380;2022-12-18T00:37:34;8.13;;;2.60;;
3967;SDS011;9221;42.646;23.380;2022-12-18T00:39:59;8.57;;;2.73;;
3967;SDS011;9221;42.646;23.380;2022-12-18T00:42:25;9.13;;;3.20;;
3967;SDS011;9221;42.646;23.380;2022-12-18T00:45:09;7.63;;;3.00;;
3967;SDS011;9221;42.646;23.380;2022-12-18T00:47:34;8.40;;;3.33;;
3967;SDS011;9221;42.646;23.380;2022-12-18T00:50:00;8.13;;;2.77;;
3967;SDS011;9221;42.646;23.380;2022-12-18T00:52:25;7.23;;;3.27;;
3967;SDS011;9221;42.646;23.380;2022-12-18T00:54:50;7.23;;;3.30;;
3967;SDS011;9221;42.646;23.380;2022-12-18T00:57:16;10.73;;;2.70;;
3967;SDS011;9221;42.646;23.380;2022-12-18T00:59:41;8.03;;;2.83;;
3967;SDS011;9221;42.646;23.380;2022-12-18T01:02:06;11.90;;;3.70;;
3967;SDS011;9221;42.646;23.380;2022-12-18T01:04:32;10.33;;;4.20;;
3967;SDS011;9221;42.646;23.380;2022-12-18T01:06:58;5.90;;;3.00;;
3967;SDS011;9221;42.646;23.380;2022-12-18T01:09:23;8.60;;;3.03;;
3967;SDS011;9221;42.646;23.380;2022-12-18T01:11:48;7.30;;;3.13;;
3967;SDS011;9221;42.646;23.380;2022-12-18T01:14:14;10.13;;;3.47;;
3967;SDS011;9221;42.646;23.380;2022-12-18T01:16:40;9.30;;;3.53;;
3967;SDS011;9221;42.646;23.380;2022-12-18T01:19:05;10.03;;;4.10;;
3967;SDS011;9221;42.646;23.380;2022-12-18T01:21:31;8.43;;;3.50;;
3967;SDS011;9221;42.646;23.380;2022-12-18T01:23:56;10.90;;;4.20;;
3967;SDS011;9221;42.646;23.380;2022-12-18T01:26:22;9.10;;;3.53;;
3967;SDS011;9221;42.646;23.380;2022-12-18T01:28:49;7.50;;;3.27;;
3967;SDS011;9221;42.646;23.380;2022-12-18T01:31:18;8.07;;;3.87;;
3967;SDS011;9221;42.646;23.380;2022-12-18T01:33:46;8.37;;;3.10;;
3967;SDS011;9221;42.646;23.380;2022-12-18T01:36:14;7.97;;;3.23;;
3967;SDS011;9221;42.646;23.380;2022-12-18T01:38:44;9.40;;;3.23;;
3967;SDS011;9221;42.646;23.380;2022-12-18T01:41:10;8.97;;;3.50;;
3967;SDS011;9221;42.646;23.380;2022-12-18T01:46:08;10.23;;;3.90;;
3967;SDS011;9221;42.646;23.380;2022-12-18T01:48:34;7.87;;;4.20;;
3967;SDS011;9221;42.646;23.380;2022-12-18T01:50:59;6.83;;;3.17;;
3967;SDS011;9221;42.646;23.380;2022-12-18T01:53:25;6.60;;;3.47;;
3967;SDS011;9221;42.646;23.380;2022-12-18T01:55:57;7.00;;;3.23;;
3967;SDS011;9221;42.646;23.380;2022-12-18T01:58:27;7.10;;;3.00;;
3967;SDS011;9221;42.646;23.380;2022-12-18T02:01:00;8.10;;;3.30;;
3967;SDS011;9221;42.646;23.380;2022-12-18T02:03:26;6.63;;;3.40;;
3967;SDS011;9221;42.646;23.380;2022-12-18T02:06:00;10.10;;;4.00;;
3967;SDS011;9221;42.646;23.380;2022-12-18T02:09:36;10.17;;;3.73;;
3967;SDS011;9221;42.646;23.380;2022-12-18T02:14:42;6.90;;;3.43;;
3967;SDS011;9221;42.646;23.380;2022-12-18T02:17:21;9.20;;;3.63;;
3967;SDS011;9221;42.646;23.380;2022-12-18T02:22:44;11.00;;;4.40;;
3967;SDS011;9221;42.646;23.380;2022-12-18T02:28:36;9.63;;;3.93;;
3967;SDS011;9221;42.646;23.380;2022-12-18T02:31:11;5.37;;;2.93;;
3967;SDS011;9221;42.646;23.380;2022-12-18T02:33:40;8.33;;;3.70;;
3967;SDS011;9221;42.646;23.380;2022-12-18T02:36:09;10.30;;;4.27;;
3967;SDS011;9221;42.646;23.380;2022-12-18T02:38:37;11.93;;;3.80;;
3967;SDS011;9221;42.646;23.380;2022-12-18T02:41:04;9.17;;;3.33;;
3967;SDS011;9221;42.646;23.380;2022-12-18T02:43:31;8.60;;;4.03;;
3967;SDS011;9221;42.646;23.380;2022-12-18T02:45:57;13.70;;;4.00;;
3967;SDS011;9221;42.646;23.380;2022-12-18T02:48:26;11.02;;;4.00;;
3967;SDS011;9221;42.646;23.380;2022-12-18T02:53:33;8.50;;;3.40;;
3967;SDS011;9221;42.646;23.380;2022-12-18T02:56:09;8.37;;;3.47;;
3967;SDS011;9221;42.646;23.380;2022-12-18T03:04:40;9.40;;;3.40;;
3967;SDS011;9221;42.646;23.380;2022-12-18T03:07:15;10.70;;;3.47;;
3967;SDS011;9221;42.646;23.380;2022-12-18T03:09:47;9.67;;;3.27;;
3967;SDS011;9221;42.646;23.380;2022-12-18T03:15:13;10.43;;;4.10;;
3967;SDS011;9221;42.646;23.380;2022-12-18T03:17:48;9.57;;;3.97;;
3967;SDS011;9221;42.646;23.380;2022-12-18T03:20:21;9.57;;;4.13;;
3967;SDS011;9221;42.646;23.380;2022-12-18T03:22:50;8.10;;;3.93;;
3967;SDS011;9221;42.646;23.380;2022-12-18T03:25:19;9.67;;;3.53;;
3967;SDS011;9221;42.646;23.380;2022-12-18T03:27:49;9.27;;;3.80;;
3967;SDS011;9221;42.646;23.380;2022-12-18T03:30:20;8.73;;;3.60;;
3967;SDS011;9221;42.646;23.380;2022-12-18T03:32:50;8.53;;;3.53;;
3967;SDS011;9221;42.646;23.380;2022-12-18T03:35:23;9.20;;;3.80;;
3967;SDS011;9221;42.646;23.380;2022-12-18T03:37:56;8.87;;;3.70;;
3967;SDS011;9221;42.646;23.380;2022-12-18T03:40:24;7.27;;;2.90;;
3967;SDS011;9221;42.646;23.380;2022-12-18T03:43:02;5.53;;;2.63;;
3967;SDS011;9221;42.646;23.380;2022-12-18T03:45:41;7.77;;;3.13;;
3967;SDS011;9221;42.646;23.380;2022-12-18T03:48:22;9.67;;;3.90;;
3967;SDS011;9221;42.646;23.380;2022-12-18T03:50:56;9.00;;;3.13;;
3967;SDS011;9221;42.646;23.380;2022-12-18T03:53:37;9.73;;;3.50;;
3967;SDS011;9221;42.646;23.380;2022-12-18T03:56:07;7.20;;;3.20;;
3967;SDS011;9221;42.646;23.380;2022-12-18T03:58:34;11.60;;;4.03;;
3967;SDS011;9221;42.646;23.380;2022-12-18T04:01:04;8.20;;;3.43;;
3967;SDS011;9221;42.646;23.380;2022-12-18T04:03:32;9.13;;;3.03;;
3967;SDS011;9221;42.646;23.380;2022-12-18T04:06:00;10.20;;;3.63;;
3967;SDS011;9221;42.646;23.380;2022-12-18T04:08:27;9.03;;;2.90;;
3967;SDS011;9221;42.646;23.380;2022-12-18T04:10:53;10.03;;;4.00;;
3967;SDS011;9221;42.646;23.380;2022-12-18T04:13:27;9.70;;;4.10;;
3967;SDS011;9221;42.646;23.380;2022-12-18T04:15:54;9.17;;;3.60;;
3967;SDS011;9221;42.646;23.380;2022-12-18T04:18:19;10.50;;;3.40;;
3967;SDS011;9221;42.646;23.380;2022-12-18T04:20:45;8.47;;;3.80;;
3967;SDS011;9221;42.646;23.380;2022-12-18T04:23:10;7.37;;;3.37;;
3967;SDS011;9221;42.646;23.380;2022-12-18T04:25:36;9.60;;;4.37;;
3967;SDS011;9221;42.646;23.380;2022-12-18T04:28:02;10.20;;;4.20;;
3967;SDS011;9221;42.646;23.380;2022-12-18T04:30:27;11.40;;;3.53;;
3967;SDS011;9221;42.646;23.380;2022-12-18T04:32:52;10.10;;;3.60;;
3967;SDS011;9221;42.646;23.380;2022-12-18T04:35:18;8.80;;;3.40;;
3967;SDS011;9221;42.646;23.380;2022-12-18T04:37:43;7.30;;;3.80;;
3967;SDS011;9221;42.646;23.380;2022-12-18T04:40:09;8.10;;;4.17;;
3967;SDS011;9221;42.646;23.380;2022-12-18T04:42:35;11.33;;;4.13;;
3967;SDS011;9221;42.646;23.380;2022-12-18T04:45:00;12.87;;;4.63;;
3967;SDS011;9221;42.646;23.380;2022-12-18T04:47:25;12.73;;;4.77;;
3967;SDS011;9221;42.646;23.380;2022-12-18T04:49:51;11.07;;;5.30;;
3967;SDS011;9221;42.646;23.380;2022-12-18T04:52:16;11.80;;;4.10;;
3967;SDS011;9221;42.646;23.380;2022-12-18T04:54:41;11.60;;;4.20;;
3967;SDS011;9221;42.646;23.380;2022-12-18T04:57:07;10.73;;;4.20;;
3967;SDS011;9221;42.646;23.380;2022-12-18T04:59:32;11.20;;;4.33;;
3967;SDS011;9221;42.646;23.380;2022-12-18T05:01:58;11.43;;;4.23;;
3967;SDS011;9221;42.646;23.380;2022-12-18T05:04:23;14.17;;;4.93;;
3967;SDS011;9221;42.646;23.380;2022-12-18T05:06:48;12.20;;;4.37;;
3967;SDS011;9221;42.646;23.380;2022-12-18T05:09:14;15.43;;;4.30;;
3967;SDS011;9221;42.646;23.380;2022-12-18T05:11:39;12.70;;;4.30;;
3967;SDS011;9221;42.646;23.380;2022-12-18T05:14:04;12.20;;;3.40;;
3967;SDS011;9221;42.646;23.380;2022-12-18T05:16:30;13.33;;;4.93;;
3967;SDS011;9221;42.646;23.380;2022-12-18T05:18:55;15.67;;;5.27;;
3967;SDS011;9221;42.646;23.380;2022-12-18T05:21:21;11.50;;;3.90;;
3967;SDS011;9221;42.646;23.380;2022-12-18T05:23:46;21.60;;;5.43;;
3967;SDS011;9221;42.646;23.380;2022-12-18T05:26:14;16.20;;;5.40;;
3967;SDS011;9221;42.646;23.380;2022-12-18T05:28:42;11.60;;;4.50;;
3967;SDS011;9221;42.646;23.380;2022-12-18T05:31:07;15.47;;;4.70;;
3967;SDS011;9221;42.646;23.380;2022-12-18T05:33:34;16.20;;;4.90;;
3967;SDS011;9221;42.646;23.380;2022-12-18T05:36:00;16.87;;;4.70;;
3967;SDS011;9221;42.646;23.380;2022-12-18T05:38:27;12.40;;;4.50;;
3967;SDS011;9221;42.646;23.380;2022-12-18T05:40:54;15.80;;;4.90;;
3967;SDS011;9221;42.646;23.380;2022-12-18T05:43:21;15.73;;;4.90;;
3967;SDS011;9221;42.646;23.380;2022-12-18T05:45:47;14.83;;;5.50;;
3967;SDS011;9221;42.646;23.380;2022-12-18T05:48:13;12.43;;;4.33;;
3967;SDS011;9221;42.646;23.380;2022-12-18T05:50:39;19.87;;;5.67;;
3967;SDS011;9221;42.646;23.380;2022-12-18T05:53:07;13.27;;;4.17;;
3967;SDS011;9221;42.646;23.380;2022-12-18T05:55:34;13.37;;;4.67;;
3967;SDS011;9221;42.646;23.380;2022-12-18T05:58:04;13.50;;;4.33;;
3967;SDS011;9221;42.646;23.380;2022-12-18T06:00:30;15.57;;;4.72;;
3967;SDS011;9221;42.646;23.380;2022-12-18T06:02:57;17.73;;;5.57;;
3967;SDS011;9221;42.646;23.380;2022-12-18T06:05:23;16.30;;;5.37;;
3967;SDS011;9221;42.646;23.380;2022-12-18T06:07:49;17.70;;;5.67;;
3967;SDS011;9221;42.646;23.380;2022-12-18T06:10:14;18.47;;;5.43;;
3967;SDS011;9221;42.646;23.380;2022-12-18T06:12:40;16.20;;;6.00;;
3967;SDS011;9221;42.646;23.380;2022-12-18T06:15:05;14.60;;;5.13;;
3967;SDS011;9221;42.646;23.380;2022-12-18T06:17:32;20.43;;;5.33;;
3967;SDS011;9221;42.646;23.380;2022-12-18T06:19:58;13.03;;;4.70;;
3967;SDS011;9221;42.646;23.380;2022-12-18T06:22:24;14.53;;;5.60;;
3967;SDS011;9221;42.646;23.380;2022-12-18T06:24:50;15.43;;;5.53;;
3967;SDS011;9221;42.646;23.380;2022-12-18T06:27:15;13.90;;;5.27;;
3967;SDS011;9221;42.646;23.380;2022-12-18T06:29:41;17.67;;;5.10;;
3967;SDS011;9221;42.646;23.380;2022-12-18T06:32:07;15.83;;;5.27;;
3967;SDS011;9221;42.646;23.380;2022-12-18T06:34:32;16.50;;;5.43;;
3967;SDS011;9221;42.646;23.380;2022-12-18T06:36:58;14.17;;;4.97;;
3967;SDS011;9221;42.646;23.380;2022-12-18T06:39:23;17.60;;;5.83;;
3967;SDS011;9221;42.646;23.380;2022-12-18T06:41:49;13.57;;;4.90;;
3967;SDS011;9221;42.646;23.380;2022-12-18T06:44:14;24.60;;;6.37;;
3967;SDS011;9221;42.646;23.380;2022-12-18T06:46:40;18.03;;;5.10;;
3967;SDS011;9221;42.646;23.380;2022-12-18T06:49:05;16.27;;;5.70;;
3967;SDS011;9221;42.646;23.380;2022-12-18T06:51:31;15.90;;;6.40;;
3967;SDS011;9221;42.646;23.380;2022-12-18T06:53:57;22.57;;;5.70;;
3967;SDS011;9221;42.646;23.380;2022-12-18T06:56:22;18.97;;;5.80;;
3967;SDS011;9221;42.646;23.380;2022-12-18T06:58:47;16.90;;;5.80;;
3967;SDS011;9221;42.646;23.380;2022-12-18T07:01:13;17.03;;;6.00;;
3967;SDS011;9221;42.646;23.380;2022-12-18T07:03:39;25.47;;;6.50;;
3967;SDS011;9221;42.646;23.380;2022-12-18T07:06:06;17.27;;;5.83;;
3967;SDS011;9221;42.646;23.380;2022-12-18T07:08:37;19.80;;;5.70;;
3967;SDS011;9221;42.646;23.380;2022-12-18T07:11:03;15.00;;;5.50;;
3967;SDS011;9221;42.646;23.380;2022-12-18T07:13:29;18.90;;;5.57;;
3967;SDS011;9221;42.646;23.380;2022-12-18T07:15:54;19.67;;;5.90;;
3967;SDS011;9221;42.646;23.380;2022-12-18T07:18:20;16.57;;;5.47;;
3967;SDS011;9221;42.646;23.380;2022-12-18T07:20:45;17.07;;;5.90;;
3967;SDS011;9221;42.646;23.380;2022-12-18T07:23:10;20.73;;;6.17;;
3967;SDS011;9221;42.646;23.380;2022-12-18T07:25:36;15.40;;;4.77;;
3967;SDS011;9221;42.646;23.380;2022-12-18T07:28:02;15.53;;;5.00;;
3967;SDS011;9221;42.646;23.380;2022-12-18T07:30:28;12.83;;;4.83;;
3967;SDS011;9221;42.646;23.380;2022-12-18T07:32:53;16.37;;;6.50;;
3967;SDS011;9221;42.646;23.380;2022-12-18T07:35:18;20.07;;;6.60;;
3967;SDS011;9221;42.646;23.380;2022-12-18T07:37:44;16.23;;;5.80;;
3967;SDS011;9221;42.646;23.380;2022-12-18T07:40:09;19.50;;;7.13;;
3967;SDS011;9221;42.646;23.380;2022-12-18T07:42:35;24.97;;;7.87;;
3967;SDS011;9221;42.646;23.380;2022-12-18T07:45:02;18.87;;;7.00;;
3967;SDS011;9221;42.646;23.380;2022-12-18T07:47:28;20.37;;;6.50;;
3967;SDS011;9221;42.646;23.380;2022-12-18T07:49:53;14.67;;;5.33;;
3967;SDS011;9221;42.646;23.380;2022-12-18T07:52:19;15.23;;;5.80;;
3967;SDS011;9221;42.646;23.380;2022-12-18T07:54:44;15.87;;;5.53;;
3967;SDS011;9221;42.646;23.380;2022-12-18T07:57:10;21.50;;;6.20;;
3967;SDS011;9221;42.646;23.380;2022-12-18T07:59:36;16.77;;;6.30;;
3967;SDS011;9221;42.646;23.380;2022-12-18T08:02:02;21.80;;;6.57;;
3967;SDS011;9221;42.646;23.380;2022-12-18T08:04:28;19.63;;;7.63;;
3967;SDS011;9221;42.646;23.380;2022-12-18T08:06:53;19.80;;;6.27;;
3967;SDS011;9221;42.646;23.380;2022-12-18T08:09:19;18.97;;;6.87;;
3967;SDS011;9221;42.646;23.380;2022-12-18T08:11:44;17.93;;;6.33;;
3967;SDS011;9221;42.646;23.380;2022-12-18T08:14:10;20.30;;;6.87;;
3967;SDS011;9221;42.646;23.380;2022-12-18T08:16:35;18.90;;;6.60;;
3967;SDS011;9221;42.646;23.380;2022-12-18T08:19:01;19.40;;;6.37;;
3967;SDS011;9221;42.646;23.380;2022-12-18T08:21:28;21.77;;;7.17;;
3967;SDS011;9221;42.646;23.380;2022-12-18T08:23:55;21.20;;;6.43;;
3967;SDS011;9221;42.646;23.380;2022-12-18T08:26:23;21.13;;;7.20;;
3967;SDS011;9221;42.646;23.380;2022-12-18T08:28:51;25.60;;;9.23;;
3967;SDS011;9221;42.646;23.380;2022-12-18T08:31:18;23.70;;;7.77;;
3967;SDS011;9221;42.646;23.380;2022-12-18T08:33:44;24.80;;;8.57;;
3967;SDS011;9221;42.646;23.380;2022-12-18T08:36:09;24.83;;;6.60;;
3967;SDS011;9221;42.646;23.380;2022-12-18T08:38:35;25.43;;;7.50;;
3967;SDS011;9221;42.646;23.380;2022-12-18T08:41:07;21.70;;;7.93;;
3967;SDS011;9221;42.646;23.380;2022-12-18T08:43:35;22.92;;;6.97;;
3967;SDS011;9221;42.646;23.380;2022-12-18T08:46:19;23.97;;;7.30;;
3967;SDS011;9221;42.646;23.380;2022-12-18T08:48:46;27.20;;;7.57;;
3967;SDS011;9221;42.646;23.380;2022-12-18T08:51:13;22.10;;;6.03;;
3967;SDS011;9221;42.646;23.380;2022-12-18T08:53:40;20.93;;;7.20;;
3967;SDS011;9221;42.646;23.380;2022-12-18T08:56:05;25.23;;;8.00;;
3967;SDS011;9221;42.646;23.380;2022-12-18T08:58:31;18.67;;;6.70;;
3967;SDS011;9221;42.646;23.380;2022-12-18T09:01:03;21.40;;;6.77;;
3967;SDS011;9221;42.646;23.380;2022-12-18T09:03:31;20.93;;;7.23;;
3967;SDS011;9221;42.646;23.380;2022-12-18T09:05:57;27.67;;;7.93;;
3967;SDS011;9221;42.646;23.380;2022-12-18T09:08:22;20.13;;;6.47;;
3967;SDS011;9221;42.646;23.380;2022-12-18T09:10:49;21.30;;;6.90;;
3967;SDS011;9221;42.646;23.380;2022-12-18T09:13:15;25.93;;;8.80;;
3967;SDS011;9221;42.646;23.380;2022-12-18T09:15:42;29.20;;;7.93;;
3967;SDS011;9221;42.646;23.380;2022-12-18T09:18:09;22.77;;;7.20;;
3967;SDS011;9221;42.646;23.380;2022-12-18T09:20:35;26.50;;;8.20;;
3967;SDS011;9221;42.646;23.380;2022-12-18T09:23:01;25.23;;;7.33;;
3967;SDS011;9221;42.646;23.380;2022-12-18T09:25:28;18.50;;;7.07;;
3967;SDS011;9221;42.646;23.380;2022-12-18T09:27:58;24.77;;;7.40;;
3967;SDS011;9221;42.646;23.380;2022-12-18T09:30:48;28.57;;;7.87;;
3967;SDS011;9221;42.646;23.380;2022-12-18T09:33:15;28.10;;;7.83;;
3967;SDS011;9221;42.646;23.380;2022-12-18T09:35:41;24.43;;;7.87;;
3967;SDS011;9221;42.646;23.380;2022-12-18T09:38:09;23.07;;;7.67;;
3967;SDS011;9221;42.646;23.380;2022-12-18T09:40:42;19.93;;;6.93;;
3967;SDS011;9221;42.646;23.380;2022-12-18T09:43:12;14.67;;;6.00;;
3967;SDS011;9221;42.646;23.380;2022-12-18T09:45:46;32.20;;;6.63;;
3967;SDS011;9221;42.646;23.380;2022-12-18T09:48:20;16.70;;;5.77;;
3967;SDS011;9221;42.646;23.380;2022-12-18T09:50:51;23.13;;;7.33;;
3967;SDS011;9221;42.646;23.380;2022-12-18T09:53:20;18.33;;;6.40;;
3967;SDS011;9221;42.646;23.380;2022-12-18T09:55:49;18.10;;;6.00;;
3967;SDS011;9221;42.646;23.380;2022-12-18T09:58:29;19.97;;;6.00;;
3967;SDS011;9221;42.646;23.380;2022-12-18T10:00:55;21.10;;;6.17;;
3967;SDS011;9221;42.646;23.380;2022-12-18T10:03:21;22.63;;;6.17;;
3967;SDS011;9221;42.646;23.380;2022-12-18T10:11:16;23.70;;;6.13;;
3967;SDS011;9221;42.646;23.380;2022-12-18T10:13:46;21.23;;;6.80;;
3967;SDS011;9221;42.646;23.380;2022-12-18T10:21:45;22.90;;;6.37;;
3967;SDS011;9221;42.646;23.380;2022-12-18T10:24:45;17.80;;;6.30;;
3967;SDS011;9221;42.646;23.380;2022-12-18T10:27:22;21.13;;;7.43;;
3967;SDS011;9221;42.646;23.380;2022-12-18T10:29:50;23.03;;;7.00;;
3967;SDS011;9221;42.646;23.380;2022-12-18T10:32:16;27.23;;;8.33;;
3967;SDS011;9221;42.646;23.380;2022-12-18T10:34:45;24.90;;;6.97;;
3967;SDS011;9221;42.646;23.380;2022-12-18T10:37:19;25.00;;;7.10;;
3967;SDS011;9221;42.646;23.380;2022-12-18T10:39:47;19.73;;;7.20;;
3967;SDS011;9221;42.646;23.380;2022-12-18T10:42:32;23.43;;;6.90;;
3967;SDS011;9221;42.646;23.380;2022-12-18T10:45:01;24.17;;;7.53;;
3967;SDS011;9221;42.646;23.380;2022-12-18T10:47:47;24.30;;;6.93;;
3967;SDS011;9221;42.646;23.380;2022-12-18T10:50:24;18.83;;;6.50;;
3967;SDS011;9221;42.646;23.380;2022-12-18T10:52:58;19.57;;;6.77;;
3967;SDS011;9221;42.646;23.380;2022-12-18T10:55:37;16.73;;;5.63;;
3967;SDS011;9221;42.646;23.380;2022-12-18T11:04:08;21.07;;;6.70;;
3967;SDS011;9221;42.646;23.380;2022-12-18T11:06:32;30.80;;;7.77;;
3967;SDS011;9221;42.646;23.380;2022-12-18T11:09:01;22.13;;;7.97;;
3967;SDS011;9221;42.646;23.380;2022-12-18T11:11:29;21.57;;;6.63;;
3967;SDS011;9221;42.646;23.380;2022-12-18T11:14:06;24.43;;;8.20;;
3967;SDS011;9221;42.646;23.380;2022-12-18T11:16:46;23.00;;;7.20;;
3967;SDS011;9221;42.646;23.380;2022-12-18T11:19:20;23.17;;;7.50;;
3967;SDS011;9221;42.646;23.380;2022-12-18T11:21:58;22.13;;;7.03;;
3967;SDS011;9221;42.646;23.380;2022-12-18T11:24:29;19.70;;;6.73;;
3967;SDS011;9221;42.646;23.380;2022-12-18T11:27:02;17.33;;;5.97;;
3967;SDS011;9221;42.646;23.380;2022-12-18T11:29:37;19.30;;;6.00;;
3967;SDS011;9221;42.646;23.380;2022-12-18T11:32:24;23.30;;;6.60;;
3967;SDS011;9221;42.646;23.380;2022-12-18T11:35:01;23.30;;;6.87;;
3967;SDS011;9221;42.646;23.380;2022-12-18T11:37:32;17.30;;;6.07;;
3967;SDS011;9221;42.646;23.380;2022-12-18T11:40:03;25.30;;;7.70;;
3967;SDS011;9221;42.646;23.380;2022-12-18T11:42:48;25.37;;;6.63;;
3967;SDS011;9221;42.646;23.380;2022-12-18T11:45:31;16.40;;;6.00;;
3967;SDS011;9221;42.646;23.380;2022-12-18T11:48:23;17.53;;;6.40;;
3967;SDS011;9221;42.646;23.380;2022-12-18T11:50:56;19.70;;;6.33;;
3967;SDS011;9221;42.646;23.380;2022-12-18T11:53:24;16.40;;;5.53;;
3967;SDS011;9221;42.646;23.380;2022-12-18T11:56:19;22.10;;;6.80;;
3967;SDS011;9221;42.646;23.380;2022-12-18T12:01:57;20.10;;;6.83;;
3967;SDS011;9221;42.646;23.380;2022-12-18T12:07:54;20.17;;;6.20;;
3967;SDS011;9221;42.646;23.380;2022-12-18T12:21:24;19.50;;;6.23;;
3967;SDS011;9221;42.646;23.380;2022-12-18T12:26:57;22.13;;;6.57;;
3967;SDS011;9221;42.646;23.380;2022-12-18T12:32:26;24.00;;;7.10;;
3967;SDS011;9221;42.646;23.380;2022-12-18T12:40:19;25.80;;;7.40;;
3967;SDS011;9221;42.646;23.380;2022-12-18T12:42:52;25.50;;;7.87;;
3967;SDS011;9221;42.646;23.380;2022-12-18T12:45:44;21.77;;;7.67;;
3967;SDS011;9221;42.646;23.380;2022-12-18T12:48:25;25.60;;;7.10;;
3967;SDS011;9221;42.646;23.380;2022-12-18T12:50:52;28.00;;;7.90;;
3967;SDS011;9221;42.646;23.380;2022-12-18T12:53:29;23.07;;;6.90;;
3967;SDS011;9221;42.646;23.380;2022-12-18T12:55:59;24.27;;;7.43;;
3967;SDS011;9221;42.646;23.380;2022-12-18T12:58:36;24.20;;;7.80;;
3967;SDS011;9221;42.646;23.380;2022-12-18T13:07:21;25.00;;;7.83;;
3967;SDS011;9221;42.646;23.380;2022-12-18T13:12:52;17.67;;;6.83;;
3967;SDS011;9221;42.646;23.380;2022-12-18T13:15:25;20.80;;;6.90;;
3967;SDS011;9221;42.646;23.380;2022-12-18T13:18:04;17.27;;;6.80;;
3967;SDS011;9221;42.646;23.380;2022-12-18T13:20:33;27.23;;;8.23;;
3967;SDS011;9221;42.646;23.380;2022-12-18T13:23:00;23.33;;;7.83;;
3967;SDS011;9221;42.646;23.380;2022-12-18T13:28:02;24.53;;;8.37;;
3967;SDS011;9221;42.646;23.380;2022-12-18T13:40:56;21.87;;;7.70;;
3967;SDS011;9221;42.646;23.380;2022-12-18T13:43:30;19.80;;;6.80;;
3967;SDS011;9221;42.646;23.380;2022-12-18T13:48:27;22.27;;;6.90;;
3967;SDS011;9221;42.646;23.380;2022-12-18T13:53:50;23.30;;;7.63;;
3967;SDS011;9221;42.646;23.380;2022-12-18T13:56:23;22.53;;;7.53;;
3967;SDS011;9221;42.646;23.380;2022-12-18T13:59:03;30.23;;;8.30;;
3967;SDS011;9221;42.646;23.380;2022-12-18T14:01:41;21.00;;;6.80;;
3967;SDS011;9221;42.646;23.380;2022-12-18T14:04:24;22.47;;;7.37;;
3967;SDS011;9221;42.646;23.380;2022-12-18T14:06:55;17.07;;;5.70;;
3967;SDS011;9221;42.646;23.380;2022-12-18T14:10:00;26.60;;;8.10;;
3967;SDS011;9221;42.646;23.380;2022-12-18T14:12:33;24.47;;;8.30;;
3967;SDS011;9221;42.646;23.380;2022-12-18T14:18:00;25.33;;;8.17;;
3967;SDS011;9221;42.646;23.380;2022-12-18T14:20:47;23.33;;;6.20;;
3967;SDS011;9221;42.646;23.380;2022-12-18T14:23:31;21.40;;;6.73;;
3967;SDS011;9221;42.646;23.380;2022-12-18T14:28:47;19.63;;;6.53;;
3967;SDS011;9221;42.646;23.380;2022-12-18T14:31:20;22.87;;;6.90;;
3967;SDS011;9221;42.646;23.380;2022-12-18T14:33:50;22.77;;;6.67;;
3967;SDS011;9221;42.646;23.380;2022-12-18T14:36:20;16.50;;;6.17;;
3967;SDS011;9221;42.646;23.380;2022-12-18T14:38:51;22.63;;;6.70;;
3967;SDS011;9221;42.646;23.380;2022-12-18T14:41:19;21.47;;;6.60;;
3967;SDS011;9221;42.646;23.380;2022-12-18T14:43:46;21.93;;;6.60;;
3967;SDS011;9221;42.646;23.380;2022-12-18T14:46:29;22.53;;;7.00;;
3967;SDS011;9221;42.646;23.380;2022-12-18T14:49:03;16.90;;;6.27;;
3967;SDS011;9221;42.646;23.380;2022-12-18T14:51:33;20.40;;;6.57;;
3967;SDS011;9221;42.646;23.380;2022-12-18T14:56:27;20.30;;;6.37;;
3967;SDS011;9221;42.646;23.380;2022-12-18T15:01:35;20.37;;;6.57;;
3967;SDS011;9221;42.646;23.380;2022-12-18T15:04:04;21.07;;;6.47;;
3967;SDS011;9221;42.646;23.380;2022-12-18T15:06:48;17.43;;;5.67;;
3967;SDS011;9221;42.646;23.380;2022-12-18T15:09:23;20.10;;;6.63;;
3967;SDS011;9221;42.646;23.380;2022-12-18T15:11:54;20.53;;;6.83;;
3967;SDS011;9221;42.646;23.380;2022-12-18T15:14:35;22.17;;;7.00;;
3967;SDS011;9221;42.646;23.380;2022-12-18T15:17:17;20.80;;;7.50;;
3967;SDS011;9221;42.646;23.380;2022-12-18T15:19:46;19.23;;;6.80;;
3967;SDS011;9221;42.646;23.380;2022-12-18T15:22:17;20.43;;;6.37;;
3967;SDS011;9221;42.646;23.380;2022-12-18T15:24:56;16.93;;;6.47;;
3967;SDS011;9221;42.646;23.380;2022-12-18T15:27:27;18.10;;;6.40;;
3967;SDS011;9221;42.646;23.380;2022-12-18T15:32:37;22.70;;;7.60;;
3967;SDS011;9221;42.646;23.380;2022-12-18T15:37:38;15.57;;;6.13;;
3967;SDS011;9221;42.646;23.380;2022-12-18T15:40:04;20.63;;;6.13;;
3967;SDS011;9221;42.646;23.380;2022-12-18T15:42:30;15.73;;;5.60;;
3967;SDS011;9221;42.646;23.380;2022-12-18T15:45:14;16.30;;;6.07;;
3967;SDS011;9221;42.646;23.380;2022-12-18T15:47:40;13.77;;;5.40;;
3967;SDS011;9221;42.646;23.380;2022-12-18T15:50:06;18.40;;;6.23;;
3967;SDS011;9221;42.646;23.380;2022-12-18T15:52:35;20.30;;;7.03;;
3967;SDS011;9221;42.646;23.380;2022-12-18T15:55:14;27.43;;;7.03;;
3967;SDS011;9221;42.646;23.380;2022-12-18T15:58:00;15.23;;;5.67;;
3967;SDS011;9221;42.646;23.380;2022-12-18T16:00:25;30.50;;;8.53;;
3967;SDS011;9221;42.646;23.380;2022-12-18T16:02:51;20.30;;;6.20;;
3967;SDS011;9221;42.646;23.380;2022-12-18T16:05:17;21.33;;;6.33;;
3967;SDS011;9221;42.646;23.380;2022-12-18T16:07:45;28.37;;;7.20;;
3967;SDS011;9221;42.646;23.380;2022-12-18T16:10:11;29.43;;;6.80;;
3967;SDS011;9221;42.646;23.380;2022-12-18T16:12:37;24.83;;;7.30;;
3967;SDS011;9221;42.646;23.380;2022-12-18T16:15:03;19.90;;;6.47;;
3967;SDS011;9221;42.646;23.380;2022-12-18T16:17:30;18.30;;;6.57;;
3967;SDS011;9221;42.646;23.380;2022-12-18T16:19:55;18.73;;;6.13;;
3967;SDS011;9221;42.646;23.380;2022-12-18T16:22:22;21.23;;;6.43;;
3967;SDS011;9221;42.646;23.380;2022-12-18T16:24:49;18.90;;;6.80;;
3967;SDS011;9221;42.646;23.380;2022-12-18T16:27:16;20.33;;;6.70;;
3967;SDS011;9221;42.646;23.380;2022-12-18T16:29:41;18.37;;;5.47;;
3967;SDS011;9221;42.646;23.380;2022-12-18T16:32:08;21.53;;;5.77;;
3967;SDS011;9221;42.646;23.380;2022-12-18T16:34:36;15.80;;;5.33;;
3967;SDS011;9221;42.646;23.380;2022-12-18T16:37:04;24.00;;;6.47;;
3967;SDS011;9221;42.646;23.380;2022-12-18T16:39:31;24.03;;;6.23;;
3967;SDS011;9221;42.646;23.380;2022-12-18T16:42:01;22.13;;;6.30;;
3967;SDS011;9221;42.646;23.380;2022-12-18T16:44:28;18.63;;;6.13;;
3967;SDS011;9221;42.646;23.380;2022-12-18T16:46:53;29.80;;;6.77;;
3967;SDS011;9221;42.646;23.380;2022-12-18T16:49:18;22.33;;;5.97;;
3967;SDS011;9221;42.646;23.380;2022-12-18T16:51:47;22.57;;;6.97;;
3967;SDS011;9221;42.646;23.380;2022-12-18T16:54:12;15.50;;;5.73;;
3967;SDS011;9221;42.646;23.380;2022-12-18T16:56:38;20.70;;;6.43;;